Historia METAR Ameland Airport Ballum (EHAL)

25 września 2022

Czas Kod Pogoda Temp. Widoczność Sufit Wiatr METAR/SPECI
06:25
V
14 °C 10 km+ 4.800 ft 010° 010° 18 kt METAR EHMA 250425Z AUTO 01018KT 9999 FEW021 SCT030 BKN048 14/08 Q1015
05:55
M
13 °C 7 km 4.800 ft 360° 360° 22 kt METAR EHMA 250355Z AUTO 36022KT 7000 -SHRA FEW018CB SCT025 BKN048 13/09 Q1015
05:25
V
14 °C 10 km+ - 360° 360° 18 kt METAR EHMA 250325Z AUTO 36018KT 9999 FEW020 14/08 Q1015
04:55
V
14 °C 10 km+ 3.000 ft 020° 020° 14 kt METAR EHMA 250255Z AUTO 02014KT 240V040 9999 FEW019 SCT026 BKN030 14/09 Q1015
04:25
V
14 °C 10 km+ 3.000 ft 010° 010° 15 kt METAR EHMA 250225Z AUTO 01015KT 9999 SCT025 BKN030 14/08 Q1015
03:55
V
14 °C 10 km+ - 010° 010° 16 kt METAR EHMA 250155Z AUTO 01016KT 9999 FEW027 SCT033 14/08 Q1015
03:25
V
14 °C 10 km+ - 010° 010° 19 kt METAR EHMA 250125Z AUTO 01019KT 9999 FEW024 SCT033 14/08 Q1015
02:55
V
15 °C 10 km+ - 010° 010° 20 kt METAR EHMA 250055Z AUTO 01020KT 9999 SCT024 SCT045 15/08 Q1015
02:25
V
14 °C 10 km+ - 360° 360° 20 kt METAR EHMA 250025Z AUTO 36020KT 9999 SCT024/// SCT045/// 14/09 Q1015
01:55
V
15 °C 10 km+ - 360° 360° 19 kt METAR EHMA 242355Z AUTO 36019KT 9999 SCT024 SCT029 15/08 Q1015
01:25
V
15 °C 10 km+ - 010° 010° 17 kt METAR EHMA 242325Z AUTO 01017KT 9999 FEW025 SCT030 15/09 Q1015
00:55
V
15 °C 10 km+ - 360° 360° 19 kt METAR EHMA 242255Z AUTO 36019KT 9999 FEW025 15/08 Q1015
00:25
V
15 °C 10 km+ - 010° 010° 19 kt METAR EHMA 242225Z AUTO 01019KT 9999 FEW025 SCT038 15/08 Q1015

24 września 2022

Czas Kod Pogoda Temp. Widoczność Sufit Wiatr METAR/SPECI
23:55
V
15 °C 10 km+ 3.800 ft 010° 010° 19 kt METAR EHMA 242155Z AUTO 01019KT 9999 SCT024 SCT031 BKN038 15/09 Q1015
23:25
V
15 °C 10 km+ - 020° 020° 19 kt METAR EHMA 242125Z AUTO 02019KT 9999 FEW024 15/09 Q1015
22:55
V
15 °C 10 km+ - 010° 010° 21 kt METAR EHMA 242055Z AUTO 01021KT 9999 FEW026 15/09 Q1015
22:25
V
15 °C 10 km+ 3.600 ft 010° 010° 19 kt METAR EHMA 242025Z AUTO 01019KT 9999 SCT024 SCT028 BKN036 15/09 Q1015
21:55
V
15 °C 10 km+ 4.100 ft 010° 010° 19 kt METAR EHMA 241955Z AUTO 01019KT 9999 FEW023 SCT026 BKN041 15/10 Q1015
21:25
V
15 °C 10 km+ - 020° 020° 20 kt METAR EHMA 241925Z AUTO 02020KT 9999 FEW023 SCT039 15/09 Q1015
20:55
V
15 °C 10 km+ - 010° 010° 20 kt METAR EHMA 241855Z AUTO 01020KT 9999 FEW027 15/09 Q1015
20:25
V
15 °C 10 km+ 4.100 ft 020° 020° 19 kt METAR EHMA 241825Z AUTO 02019KT 9999 FEW024 SCT028 BKN041 15/09 Q1015
19:55
V
15 °C 10 km+ - 020° 020° 20 kt METAR EHMA 241755Z AUTO 02020KT 340V040 9999 FEW022 SCT030 15/09 Q1015
19:25
V
15 °C 10 km+ - 010° 010° 22 kt METAR EHMA 241725Z AUTO 01022KT 9999 FEW022 15/09 Q1014
18:55
V
15 °C 10 km+ - 010° 010° 21 kt METAR EHMA 241655Z AUTO 01021KT 9999 FEW024 15/09 Q1014
18:25
V
15 °C 10 km+ - 010° 010° 21 kt METAR EHMA 241625Z AUTO 01021KT 9999 FEW024 15/09 Q1014
17:55
V
15 °C 10 km+ - 010° 010° 22 kt METAR EHMA 241555Z AUTO 01022KT 9999 FEW024 15/09 Q1014
17:25
V
15 °C 10 km+ - 020° 020° 21 kt METAR EHMA 241525Z AUTO 02021KT 9999 FEW024 15/09 Q1014
16:55
V
15 °C 10 km+ - 010° 010° 22 kt METAR EHMA 241455Z AUTO 01022KT 9999 NSC 15/09 Q1014
16:25
V
15 °C 10 km+ - 020° 020° 21 kt METAR EHMA 241425Z AUTO 02021KT 9999 FEW027 15/08 Q1014
15:55
V
15 °C 10 km+ - 020° 020° 20 kt METAR EHMA 241355Z AUTO 02020KT 9999 FEW023 15/09 Q1014
15:25
V
15 °C 10 km+ - 020° 020° 22 kt METAR EHMA 241325Z AUTO 02022KT 9999 FEW023 SCT033 15/09 Q1014
14:55
V
15 °C 10 km+ - 020° 020° 23 kt METAR EHMA 241255Z AUTO 02023KT 9999 FEW023 SCT029 15/09 Q1014
14:25
V
15 °C 10 km+ - 020° 020° 21 kt METAR EHMA 241225Z AUTO 02021KT 9999 FEW023 15/10 Q1013
13:55
V
15 °C 10 km+ - 020° 020° 22 kt METAR EHMA 241155Z AUTO 02022KT 9999 FEW022 SCT027 15/09 Q1013
13:25
V
15 °C 10 km+ 3.100 ft 010° 010° 24 kt METAR EHMA 241125Z AUTO 01024KT 9999 SCT022 SCT027 BKN031 15/10 Q1013 RE//
12:55
L
15 °C 0 m - 020° 020° 22 kt METAR EHMA 241055Z AUTO 02022KT //// // FEW022 SCT026 15/09 Q1013 RE//
12:25
L
15 °C 0 m - 020° 020° 24 kt METAR EHMA 241025Z AUTO 02024KT //// // FEW023 SCT029 15/09 Q1013 RE//
11:55
L
15 °C 0 m - 020° 020° 22 kt METAR EHMA 240955Z AUTO 02022KT //// // FEW022 SCT028 15/10 Q1013 RE//
11:25
L
15 °C 0 m 3.800 ft 010° 010° 24 kt METAR EHMA 240925Z AUTO 01024KT //// // FEW021 SCT030 BKN038 15/10 Q1013 RE//
10:55
L
15 °C 0 m 3.100 ft 020° 020° 22 kt METAR EHMA 240855Z AUTO 02022KT //// // FEW021 SCT027 BKN031 15/10 Q1013 RE//
10:25
L
15 °C 0 m 3.000 ft 020° 020° 22 kt METAR EHMA 240825Z AUTO 02022KT //// // FEW022 BKN030 BKN035 15/10 Q1012 RE//
09:55
L
15 °C 0 m 2.900 ft 010° 010° 23 kt METAR EHMA 240755Z AUTO 01023KT //// // FEW022 BKN029 OVC033 15/10 Q1012 RE//
09:25
L
15 °C 0 m 2.800 ft 010° 010° 23 kt METAR EHMA 240725Z AUTO 01023KT //// // FEW021 BKN028 OVC034 15/10 Q1012 RE//
08:55
L
15 °C 0 m 2.800 ft 010° 010° 24 kt METAR EHMA 240655Z AUTO 01024KT //// // FEW021 SCT025 BKN028 15/10 Q1012 RE//
08:25
L
15 °C 0 m 2.400 ft 020° 020° 25 kt METAR EHMA 240625Z AUTO 02025KT //// // SCT019 BKN024 BKN029 15/10 Q1012 RE//
07:55
L
15 °C 0 m 1.600 ft 010° 010° 24 kt METAR EHMA 240555Z AUTO 01024KT //// // BKN016 OVC019 15/10 Q1011 RE//
07:25
L
15 °C 0 m 2.000 ft 020° 020° 25 kt METAR EHMA 240525Z AUTO 02025KT //// // SCT016 BKN020 OVC023 15/11 Q1011 RE//
06:55
L
15 °C 0 m 2.100 ft 020° 020° 23 kt METAR EHMA 240455Z AUTO 02023KT //// // FEW017 BKN021 BKN025 15/11 Q1011 RE//
06:25
L
15 °C 0 m 3.300 ft 010° 010° 23 kt METAR EHMA 240425Z AUTO 01023KT //// // FEW017 SCT029 OVC033 15/11 Q1011 RE//
05:55
L
15 °C 0 m 3.300 ft 010° 010° 25 kt METAR EHMA 240355Z AUTO 01025KT //// // FEW016 SCT029 OVC033 15/11 Q1011 RE//
05:25
L
15 °C 0 m 2.900 ft 010° 010° 24 kt METAR EHMA 240325Z AUTO 01024KT //// // FEW015 SCT025 OVC029 15/11 Q1011 RE//
04:55
L
15 °C 0 m 1.900 ft 020° 020° 22 kt METAR EHMA 240255Z AUTO 02022KT //// // FEW013 SCT015 BKN019 15/12 Q1011 RE//
04:25
L
15 °C 0 m 1.900 ft 010° 010° 24 kt METAR EHMA 240225Z AUTO 01024KT //// // FEW012 SCT015 BKN019 15/12 Q1011 RE//
03:55
L
15 °C 0 m 2.000 ft 020° 020° 18 kt METAR EHMA 240155Z AUTO 02018KT //// // FEW011 SCT016 BKN020 15/13 Q1011 RE//
03:25
L
15 °C 0 m 1.500 ft 020° 020° 20 kt METAR EHMA 240125Z AUTO 02020KT //// // FEW009 BKN015 OVC019 15/13 Q1011 RE//
02:55
L
15 °C 0 m 1.400 ft 020° 020° 20 kt METAR EHMA 240055Z AUTO 02020KT //// // FEW009 SCT010 BKN014 15/13 Q1011 RE//
02:25
L
15 °C 0 m 1.900 ft 020° 020° 21 kt METAR EHMA 240025Z AUTO 02021KT //// // FEW007/// SCT011/// BKN019/// 15/13 Q1011 RE//
01:55
L
15 °C 0 m 3.100 ft 020° 020° 15 kt METAR EHMA 232355Z AUTO 02015KT 260V050 //// // FEW005 SCT009 BKN031 15/14 Q1011 RE//
01:25
L
15 °C 0 m - Var Var 6 - 16 kt METAR EHMA 232325Z AUTO VRB06G16KT //// // FEW006 SCT024 15/14 Q1011 RE//
00:55
L
14 °C 0 m 3.600 ft 230° 230° 8 kt METAR EHMA 232255Z AUTO 23008KT //// // FEW007 SCT011 FEW015CB BKN036 14/13 Q1012 RE//
00:25
L
14 °C 0 m 1.100 ft 220° 220° 8 kt METAR EHMA 232225Z AUTO 22008KT //// // FEW007/// SCT008/// BKN011/// 14/13 Q1012 RE//

23 września 2022

Czas Kod Pogoda Temp. Widoczność Sufit Wiatr METAR/SPECI
23:55
L
14 °C 0 m 1.800 ft 200° 200° 7 kt METAR EHMA 232155Z AUTO 20007KT //// // FEW007 BKN018 OVC033 14/13 Q1012 RE//
23:25
L
14 °C 0 m 2.800 ft 200° 200° 10 kt METAR EHMA 232125Z AUTO 20010KT 150V260 //// // FEW010 SCT017 BKN028 14/13 Q1012 RE//
22:55
L
14 °C 0 m 2.000 ft 200° 200° 10 kt METAR EHMA 232055Z AUTO 20010KT //// // FEW012 SCT016 BKN020 14/13 Q1012 RE//
22:25
L
14 °C 0 m 1.700 ft 200° 200° 10 kt METAR EHMA 232025Z AUTO 20010KT 170V250 //// // FEW012 SCT014 BKN017 14/13 Q1012 RE//
21:55
L
14 °C 0 m 2.200 ft 210° 210° 12 kt METAR EHMA 231955Z AUTO 21012KT 170V300 //// // FEW012 SCT015 BKN022 14/13 Q1012 RE//
21:25
L
14 °C 0 m 2.700 ft 200° 200° 11 kt METAR EHMA 231925Z AUTO 20011KT 170V230 //// // FEW014 FEW015CB SCT022 BKN027 14/13 Q1013 RE//
20:55
L
14 °C 0 m 1.500 ft 200° 200° 10 kt METAR EHMA 231855Z AUTO 20010KT 170V260 //// // BKN015CB BKN020 BKN027 14/13 Q1013 RE//
20:25
L
14 °C 0 m 1.300 ft 200° 200° 12 kt METAR EHMA 231825Z AUTO 20012KT 130V270 //// // BKN013 BKN015CB 14/13 Q1013 RE//
19:55
L
14 °C 0 m 1.300 ft 190° 190° 13 kt METAR EHMA 231755Z AUTO 19013KT //// // BKN013 BKN027 OVC043 14/13 Q1013 RE//
19:25
L
14 °C 0 m 3.100 ft 190° 190° 12 kt METAR EHMA 231725Z AUTO 19012KT //// // FEW013 SCT025 BKN031 14/13 Q1013 RE//
18:55
L
14 °C 0 m 2.300 ft 190° 190° 12 kt METAR EHMA 231655Z AUTO 19012KT //// // FEW001 SCT012 BKN023 14/13 Q1013 RE//
18:25
L
14 °C 0 m 1.900 ft 190° 190° 12 kt METAR EHMA 231625Z AUTO 19012KT //// // FEW001 SCT015 BKN019 14/13 Q1013 RE//
17:55
L
14 °C 0 m 1.600 ft 190° 190° 11 kt METAR EHMA 231555Z AUTO 19011KT //// // SCT001 BKN016 OVC021 14/13 Q1013 RE//
17:25
L
14 °C 0 m 400 ft 190° 190° 11 kt METAR EHMA 231525Z AUTO 19011KT //// // FEW001 SCT003 BKN004 14/13 Q1013 RE//
16:55
L
14 °C 0 m 2.300 ft 200° 200° 11 kt METAR EHMA 231455Z AUTO 20011KT 180V250 //// // FEW001 SCT005 FEW015CB BKN023 14/13 Q1013 RE//
16:25
L
15 °C 0 m 3.200 ft Var Var 9 kt METAR EHMA 231425Z AUTO VRB09KT //// // FEW022 SCT027 BKN032 15/13 Q1013
15:55
L
15 °C 0 m 3.300 ft 230° 230° 11 kt METAR EHMA 231355Z AUTO 23011KT //// // FEW015 BKN033 OVC041 15/13 Q1014 RE//
15:25
L
15 °C 0 m 3.500 ft 210° 210° 10 kt METAR EHMA 231325Z AUTO 21010KT //// // FEW010 BKN035 OVC040 15/13 Q1014
14:55
V
15 °C 10 km+ 3.500 ft Var Var 11 kt METAR EHMA 231255Z AUTO VRB11KT 9999 FEW026 BKN035 OVC042 15/13 Q1014
14:25
V
15 °C 10 km+ 4.200 ft 200° 200° 12 kt METAR EHMA 231225Z AUTO 20012KT 9999 FEW026 BKN042 OVC046 15/12 Q1014
13:55
V
15 °C 10 km+ 4.400 ft Var Var 12 kt METAR EHMA 231155Z AUTO VRB12KT 9999 BKN044 OVC049 15/12 Q1014
13:25
V
15 °C 10 km+ - Var Var 12 kt METAR EHMA 231125Z AUTO VRB12KT 9999 SCT046 15/12 Q1014
12:55
V
15 °C 10 km+ - Var Var 12 kt METAR EHMA 231055Z AUTO VRB12KT 9999 NSC 15/11 Q1014
12:25
V
14 °C 10 km+ - 210° 210° 11 kt METAR EHMA 231025Z AUTO 21011KT 9999 NSC 14/11 Q1014
11:55
V
14 °C 10 km+ - 210° 210° 11 kt METAR EHMA 230955Z AUTO 21011KT 140V280 9999 NSC 14/10 Q1015
11:25
V
13 °C 10 km+ - Var Var 12 kt METAR EHMA 230925Z AUTO VRB12KT 9999 NSC 13/10 Q1015
10:55
V
13 °C 10 km+ - 200° 200° 13 kt METAR EHMA 230855Z AUTO 20013KT 170V260 9999 NSC 13/09 Q1015
10:25
V
13 °C 10 km+ - 200° 200° 13 kt METAR EHMA 230825Z AUTO 20013KT 170V250 9999 NSC 13/08 Q1015
09:55
V
13 °C 10 km+ - 200° 200° 14 kt METAR EHMA 230755Z AUTO 20014KT 160V260 9999 NSC 13/08 Q1015
09:25
V
13 °C 10 km+ - 200° 200° 14 kt METAR EHMA 230725Z AUTO 20014KT 160V270 9999 NSC 13/08 Q1015
08:55
V
13 °C 10 km+ - 200° 200° 15 kt METAR EHMA 230655Z AUTO 20015KT 180V240 9999 NSC 13/08 Q1015
08:25
V
13 °C 10 km+ - 200° 200° 15 kt METAR EHMA 230625Z AUTO 20015KT 9999 FEW047 13/08 Q1015
07:55
V
12 °C 10 km+ - 190° 190° 14 kt METAR EHMA 230555Z AUTO 19014KT 9999 SCT047 12/08 Q1015
07:25
V
12 °C 10 km+ - 190° 190° 16 kt METAR EHMA 230525Z AUTO 19016KT 9999 NSC 12/08 Q1015
06:55
V
12 °C 10 km+ - 190° 190° 17 kt METAR EHMA 230455Z AUTO 19017KT 9999 FEW047 12/08 Q1015
06:25
V
12 °C 10 km+ - 190° 190° 17 kt METAR EHMA 230425Z AUTO 19017KT 9999 NSC 12/08 Q1015
05:55
V
13 °C 10 km+ - 190° 190° 17 kt METAR EHMA 230355Z AUTO 19017KT 9999 NSC 13/07 Q1015
05:25
V
13 °C 10 km+ - 190° 190° 19 kt METAR EHMA 230325Z AUTO 19019KT 9999 SCT046 13/07 Q1015
04:55
V
13 °C 10 km+ 4.600 ft 190° 190° 18 kt METAR EHMA 230255Z AUTO 19018KT 9999 BKN046 13/08 Q1016
04:25
V
13 °C 10 km+ 4.700 ft 190° 190° 18 kt METAR EHMA 230225Z AUTO 19018KT 9999 BKN047 13/08 Q1016
03:55
V
13 °C 10 km+ 4.700 ft 190° 190° 17 kt METAR EHMA 230155Z AUTO 19017KT 9999 OVC047 13/08 Q1016
03:25
V
13 °C 10 km+ 4.700 ft 190° 190° 19 kt METAR EHMA 230125Z AUTO 19019KT 9999 BKN047 13/08 Q1017
02:55
V
13 °C 10 km+ - 190° 190° 18 kt METAR EHMA 230055Z AUTO 19018KT 9999 FEW047 13/08 Q1017
02:25
V
13 °C 10 km+ - 190° 190° 16 kt METAR EHMA 230025Z AUTO 19016KT 9999 NSC 13/08 Q1017
01:55
V
13 °C 10 km+ - 190° 190° 15 kt METAR EHMA 222355Z AUTO 19015KT 9999 NSC 13/08 Q1017
Starsze dane

My i osoby trzecie śledzimy twoje zachowanie w internecie na naszej stronie za pomocą plików cookie. Jeśli kontynuujesz, zakładamy, że zgadzasz się z naszą polityką plików cookie. Dowiedz się więcej